Overview Statistics Trail Chart Weather Telemetry Raw packets
 

This is the latest recevied weather packets stored in our database for station/object DO1BDB-12. If no packets are shown the sender has not sent any weather packets the latest 10 day(s).

<< 361 362 363 364 365 366 367 >>
Time Temp. Humidity Pressure Rain* Wind** Luminosity Snow
1788076847 22.22° C 66% 100.7 hPa - - - -
1788076781 22.22° C 66% 100.7 hPa - - - -
1788076716 22.22° C 65% 100.7 hPa - - - -
1788076664 22.22° C 65% 100.7 hPa - - - -
1788076584 22.78° C 63% 100.7 hPa - - - -
1788076518 22.78° C 63% 100.7 hPa - - - -
1788076452 23.89° C 59% 100.7 hPa - - - -
1788076387 24.44° C 56% 100.7 hPa - - - -
1788076320 25° C 55% 100.7 hPa - - - -
1788076255 23.89° C 58% 100.7 hPa - - - -
1788076189 27.22° C 50% 100.7 hPa - - - -
1788076123 26.67° C 52% 100.7 hPa - - - -
1788076057 25° C 56% 100.7 hPa - - - -
1788075991 26.11° C 54% 100.7 hPa - - - -
1788075932 25.56° C 55% 100.7 hPa - - - -
1788075860 23.89° C 60% 100.7 hPa - - - -
1788075794 23.89° C 60% 100.7 hPa - - - -
1788075728 23.89° C 60% 100.7 hPa - - - -
1788075662 21.67° C 67% 100.7 hPa - - - -
1788075596 21.11° C 68% 100.7 hPa - - - -
1788075530 21.67° C 66% 100.7 hPa - - - -
1788075465 21.67° C 66% 100.7 hPa - - - -
1788075399 22.22° C 64% 100.7 hPa - - - -
1788075333 22.78° C 62% 100.7 hPa - - - -
1788075267 23.33° C 63% 100.7 hPa - - - -

* Rain since midnight (hover to see other rain measurements)
** Current wind speed in m/s (hover to see current wind gust speed)